createdAt,value
2023-02-01T00:00:33.544Z,18.7
2023-02-01T00:01:36.068Z,18.7
2023-02-01T00:02:38.534Z,18.7
2023-02-01T00:03:40.787Z,18.7
2023-02-01T00:04:43.209Z,18.7
2023-02-01T00:05:45.479Z,18.7
2023-02-01T00:06:47.788Z,18.7
2023-02-01T00:07:50.367Z,18.7
2023-02-01T00:08:52.603Z,18.8
2023-02-01T00:09:54.876Z,18.8
2023-02-01T00:10:57.114Z,18.8
2023-02-01T00:11:59.619Z,18.8
2023-02-01T00:13:01.891Z,18.8
2023-02-01T00:14:04.427Z,18.8
2023-02-01T00:15:06.396Z,18.8
2023-02-01T00:16:08.958Z,18.8
2023-02-01T00:17:11.453Z,18.8
2023-02-01T00:18:13.497Z,18.8
2023-02-01T00:19:16.014Z,18.9
2023-02-01T00:20:18.094Z,18.9
2023-02-01T00:21:21.094Z,18.9
2023-02-01T00:22:23.433Z,18.9
2023-02-01T00:23:25.996Z,18.9
2023-02-01T00:24:28.521Z,18.9
2023-02-01T00:25:30.777Z,18.9
2023-02-01T00:26:33.117Z,18.9
2023-02-01T00:27:35.719Z,18.9
2023-02-01T00:28:38.230Z,18.9
2023-02-01T00:29:40.520Z,18.9
2023-02-01T00:30:42.808Z,18.9
2023-02-01T00:31:45.300Z,18.9
2023-02-01T00:32:47.644Z,18.9
2023-02-01T00:33:50.214Z,18.9
2023-02-01T00:34:52.482Z,18.9
2023-02-01T00:35:54.700Z,18.9
2023-02-01T00:36:56.945Z,19
2023-02-01T00:37:59.249Z,19
2023-02-01T00:39:01.855Z,19
2023-02-01T00:40:04.098Z,19
2023-02-01T00:41:06.652Z,19
2023-02-01T00:42:08.615Z,19
2023-02-01T00:43:11.130Z,19
2023-02-01T00:44:13.630Z,19
2023-02-01T00:45:16.160Z,19
2023-02-01T00:46:18.874Z,19
2023-02-01T00:47:21.243Z,19
2023-02-01T00:48:23.743Z,19
2023-02-01T00:49:25.957Z,19
2023-02-01T00:50:28.195Z,19
2023-02-01T00:51:30.425Z,19
2023-02-01T00:52:33.281Z,19
2023-02-01T00:53:35.688Z,19
2023-02-01T00:54:38.321Z,19
2023-02-01T00:55:40.587Z,19
2023-02-01T00:56:42.536Z,19
2023-02-01T00:57:45.034Z,19
2023-02-01T00:58:47.564Z,19
2023-02-01T00:59:50.085Z,19
2023-02-01T01:00:52.761Z,19.1
2023-02-01T01:01:55.421Z,19.1
2023-02-01T01:02:57.849Z,19.1
2023-02-01T01:04:00.332Z,19.1
2023-02-01T01:05:02.557Z,19.1
2023-02-01T01:06:04.847Z,19.1
2023-02-01T01:07:06.799Z,19.1
2023-02-01T01:08:08.763Z,19.1
2023-02-01T01:09:11.336Z,19.1
2023-02-01T01:10:13.921Z,19.1
2023-02-01T01:11:16.142Z,19.1
2023-02-01T01:12:18.392Z,19.1
2023-02-01T01:13:20.927Z,19.1
2023-02-01T01:14:23.155Z,19.1
2023-02-01T01:15:25.662Z,19.1
2023-02-01T01:16:28.725Z,19.1
2023-02-01T01:17:30.993Z,19.1
2023-02-01T01:18:32.962Z,19.1
2023-02-01T01:19:34.909Z,19.1
2023-02-01T01:20:37.710Z,19.1
2023-02-01T01:21:40.237Z,19.1
2023-02-01T01:22:42.756Z,19.1
2023-02-01T01:23:45.269Z,19.1
2023-02-01T01:24:47.751Z,19.1
2023-02-01T01:25:50.313Z,19.1
2023-02-01T01:26:53.059Z,19.2
2023-02-01T01:27:55.563Z,19.2
2023-02-01T01:28:57.845Z,19.2
2023-02-01T01:30:00.401Z,19.2
2023-02-01T01:31:03.142Z,19.2
2023-02-01T01:32:05.579Z,19.2
2023-02-01T01:33:07.829Z,19.2
2023-02-01T01:34:10.095Z,19.2
2023-02-01T01:35:12.317Z,19.2
2023-02-01T01:36:14.629Z,19.2
2023-02-01T01:37:17.167Z,19.2
2023-02-01T01:38:19.397Z,19.2
2023-02-01T01:39:21.902Z,19.2
2023-02-01T01:40:24.597Z,19.2
2023-02-01T01:41:27.173Z,19.2
2023-02-01T01:42:29.412Z,19.2
2023-02-01T01:43:31.917Z,19.2
2023-02-01T01:44:34.449Z,19.2
2023-02-01T01:45:37.190Z,19.2
2023-02-01T01:46:39.719Z,19.2
2023-02-01T01:47:42.420Z,19.2
2023-02-01T01:48:44.652Z,19.2
2023-02-01T01:49:47.171Z,19.2
2023-02-01T01:50:49.397Z,19.2
2023-02-01T01:51:51.640Z,19.2
2023-02-01T01:52:54.242Z,19.2
2023-02-01T01:53:56.746Z,19.2
2023-02-01T01:54:58.998Z,19.2
2023-02-01T01:56:01.579Z,19.2
2023-02-01T01:57:04.184Z,19.2
2023-02-01T01:58:06.454Z,19.3
2023-02-01T01:59:08.441Z,19.3
2023-02-01T02:00:10.938Z,19.2
2023-02-01T02:01:13.317Z,19.2
2023-02-01T02:02:16.296Z,19.2
2023-02-01T02:03:18.750Z,19.2
2023-02-01T02:04:21.270Z,19.2
2023-02-01T02:05:23.989Z,19.2
2023-02-01T02:06:26.575Z,19.2
2023-02-01T02:07:29.119Z,19.2
2023-02-01T02:08:31.667Z,19.2
2023-02-01T02:09:34.198Z,19.2
2023-02-01T02:10:36.728Z,19.2
2023-02-01T02:11:39.302Z,19.2
2023-02-01T02:12:41.917Z,19.2
2023-02-01T02:13:44.491Z,19.2
2023-02-01T02:14:46.999Z,19.2
2023-02-01T02:15:49.507Z,19.3
2023-02-01T02:16:52.017Z,19.3
2023-02-01T02:17:54.280Z,19.3
2023-02-01T02:18:56.541Z,19.3
2023-02-01T02:19:58.754Z,19.3
2023-02-01T02:21:00.982Z,19.3
2023-02-01T02:22:03.204Z,19.3
2023-02-01T02:23:05.714Z,19.3
2023-02-01T02:24:08.287Z,19.3
2023-02-01T02:25:10.805Z,19.3
2023-02-01T02:26:13.041Z,19.3
2023-02-01T02:27:15.715Z,19.3
2023-02-01T02:28:18.271Z,19.3
2023-02-01T02:29:20.795Z,19.3
2023-02-01T02:30:24.574Z,19.3
2023-02-01T02:31:27.740Z,19.3
2023-02-01T02:32:30.296Z,19.3
2023-02-01T02:33:32.252Z,19.3
2023-02-01T02:34:34.756Z,19.3
2023-02-01T02:35:36.984Z,19.3
2023-02-01T02:36:39.511Z,19.3
2023-02-01T02:37:42.062Z,19.3
2023-02-01T02:38:44.022Z,19.3
2023-02-01T02:39:46.289Z,19.3
2023-02-01T02:40:48.270Z,19.3
2023-02-01T02:41:50.776Z,19.3
2023-02-01T02:42:53.064Z,19.3
2023-02-01T02:43:55.613Z,19.3
2023-02-01T02:44:58.135Z,19.3
2023-02-01T02:46:00.645Z,19.3
2023-02-01T02:47:03.128Z,19.3
2023-02-01T02:48:05.357Z,19.3
2023-02-01T02:49:07.900Z,19.3
2023-02-01T02:50:09.847Z,19.3
2023-02-01T02:51:12.364Z,19.3
2023-02-01T02:52:14.363Z,19.3
2023-02-01T02:53:16.614Z,19.3
2023-02-01T02:54:19.174Z,19.3
2023-02-01T02:55:21.419Z,19.3
2023-02-01T02:56:24.017Z,19.3
2023-02-01T02:57:26.274Z,19.3
2023-02-01T02:58:28.637Z,19.3
2023-02-01T02:59:31.013Z,19.3
2023-02-01T03:00:33.597Z,19.3
2023-02-01T03:01:36.137Z,19.3
2023-02-01T03:02:38.529Z,19.3
2023-02-01T03:03:41.297Z,19.3
2023-02-01T03:04:43.859Z,19.3
2023-02-01T03:05:45.850Z,19.3
2023-02-01T03:06:48.391Z,19.3
2023-02-01T03:07:50.924Z,19.3
2023-02-01T03:08:53.441Z,19.3
2023-02-01T03:09:56.081Z,19.3
2023-02-01T03:10:58.613Z,19.4
2023-02-01T03:12:00.631Z,19.4
2023-02-01T03:13:02.850Z,19.4
2023-02-01T03:14:05.404Z,19.3
2023-02-01T03:15:07.695Z,19.3
2023-02-01T03:16:10.445Z,19.3
2023-02-01T03:17:12.316Z,19.3
2023-02-01T03:18:14.813Z,19.3
2023-02-01T03:19:17.361Z,19.3
2023-02-01T03:20:19.956Z,19.3
2023-02-01T03:21:23.317Z,19.3
2023-02-01T03:22:25.843Z,19.3
2023-02-01T03:23:28.073Z,19.3
2023-02-01T03:24:30.580Z,19.3
2023-02-01T03:25:32.809Z,19.3
2023-02-01T03:26:35.203Z,19.3
2023-02-01T03:27:37.787Z,19.3
2023-02-01T03:28:40.031Z,19.3
2023-02-01T03:29:42.620Z,19.3
2023-02-01T03:30:45.340Z,19.4
2023-02-01T03:31:48.261Z,19.4
2023-02-01T03:32:50.662Z,19.4
2023-02-01T03:33:52.602Z,19.4
2023-02-01T03:34:55.130Z,19.4
2023-02-01T03:35:56.806Z,19.4
2023-02-01T03:36:59.210Z,19.4
2023-02-01T03:38:01.718Z,19.4
2023-02-01T03:39:04.270Z,19.4
2023-02-01T03:40:06.788Z,19.4
2023-02-01T03:41:09.036Z,19.4
2023-02-01T03:42:11.571Z,19.4
2023-02-01T03:43:13.829Z,19.4
2023-02-01T03:44:16.360Z,19.3
2023-02-01T03:45:18.636Z,19.3
2023-02-01T03:46:21.233Z,19.3
2023-02-01T03:47:23.812Z,19.3
2023-02-01T03:48:26.343Z,19.3
2023-02-01T03:49:28.870Z,19.3
2023-02-01T03:50:31.373Z,19.3
2023-02-01T03:51:34.090Z,19.3
2023-02-01T03:52:36.896Z,19.3
2023-02-01T03:53:39.414Z,19.4
2023-02-01T03:54:41.629Z,19.4
2023-02-01T03:55:43.874Z,19.4
2023-02-01T03:56:46.400Z,19.4
2023-02-01T03:57:48.428Z,19.4
2023-02-01T03:58:50.679Z,19.4
2023-02-01T03:59:52.930Z,19.4
2023-02-01T04:00:55.645Z,19.4
2023-02-01T04:01:58.387Z,19.4
2023-02-01T04:03:00.086Z,19.4
2023-02-01T04:04:02.303Z,19.4
2023-02-01T04:05:04.537Z,19.3
2023-02-01T04:06:07.042Z,19.3
2023-02-01T04:07:09.246Z,19.3
2023-02-01T04:08:11.480Z,19.3
2023-02-01T04:09:13.987Z,19.3
2023-02-01T04:11:21.484Z,19.3
2023-02-01T04:12:23.825Z,19.2
2023-02-01T04:13:26.081Z,19.2
2023-02-01T04:14:28.673Z,19.2
2023-02-01T04:15:30.891Z,19.2
2023-02-01T04:16:33.111Z,19.2
2023-02-01T04:18:37.560Z,19.2
2023-02-01T04:19:40.043Z,19.2
2023-02-01T04:20:42.284Z,19.2
2023-02-01T04:21:44.779Z,19.1
2023-02-01T04:22:47.005Z,19.1
2023-02-01T04:23:49.267Z,19.1
2023-02-01T04:24:51.759Z,19.1
2023-02-01T04:25:53.999Z,19.1
2023-02-01T04:26:55.945Z,19.1
2023-02-01T04:27:58.469Z,19.1
2023-02-01T04:29:01.008Z,19.1
2023-02-01T04:30:03.365Z,19.1
2023-02-01T04:31:06.206Z,19.1
2023-02-01T04:32:09.165Z,19.1
2023-02-01T04:33:11.718Z,19.1
2023-02-01T04:34:14.226Z,19.1
2023-02-01T04:35:16.716Z,19.1
2023-02-01T04:36:18.673Z,19.1
2023-02-01T04:37:21.156Z,19.1
2023-02-01T04:38:22.845Z,19.1
2023-02-01T04:39:25.685Z,19.1
2023-02-01T04:40:28.400Z,19
2023-02-01T04:41:30.714Z,19
2023-02-01T04:42:32.976Z,19.1
2023-02-01T04:43:35.242Z,19
2023-02-01T04:44:37.542Z,19
2023-02-01T04:45:39.526Z,19
2023-02-01T04:46:42.066Z,19
2023-02-01T04:47:44.654Z,19
2023-02-01T04:48:47.221Z,19
2023-02-01T04:49:49.780Z,19
2023-02-01T04:50:52.304Z,19
2023-02-01T04:51:54.855Z,19
2023-02-01T04:52:57.360Z,19
2023-02-01T04:53:59.858Z,19
2023-02-01T04:55:02.457Z,19
2023-02-01T04:56:04.694Z,19
2023-02-01T04:57:07.195Z,19
2023-02-01T04:58:09.738Z,19
2023-02-01T04:59:11.993Z,19
2023-02-01T05:00:14.523Z,19.1
2023-02-01T05:01:17.196Z,19
2023-02-01T05:02:19.835Z,19
2023-02-01T05:03:22.400Z,19
2023-02-01T05:04:25.136Z,19
2023-02-01T05:05:27.627Z,19
2023-02-01T05:06:30.163Z,19
2023-02-01T05:07:32.403Z,19
2023-02-01T05:08:34.658Z,19
2023-02-01T05:09:41.451Z,19
2023-02-01T05:10:43.981Z,19
2023-02-01T05:11:46.481Z,19
2023-02-01T05:12:48.969Z,19
2023-02-01T05:13:50.649Z,19
2023-02-01T05:14:53.171Z,19
2023-02-01T05:15:55.931Z,19
2023-02-01T05:16:58.653Z,19
2023-02-01T05:18:01.167Z,19
2023-02-01T05:19:03.448Z,19
2023-02-01T05:20:06.031Z,19
2023-02-01T05:21:08.519Z,19
2023-02-01T05:22:11.085Z,19
2023-02-01T05:23:13.027Z,19
2023-02-01T05:24:15.281Z,19
2023-02-01T05:25:17.658Z,19
2023-02-01T05:26:20.315Z,19
2023-02-01T05:27:22.642Z,19
2023-02-01T05:28:24.864Z,19
2023-02-01T05:29:27.104Z,19
2023-02-01T05:30:29.384Z,19
2023-02-01T05:31:32.379Z,19
2023-02-01T05:32:35.395Z,19
2023-02-01T05:33:37.918Z,19
2023-02-01T05:34:40.484Z,19
2023-02-01T05:35:43.019Z,19
2023-02-01T05:36:45.559Z,19
2023-02-01T05:37:47.820Z,19
2023-02-01T05:38:50.331Z,19
2023-02-01T05:39:52.020Z,19
2023-02-01T05:40:53.998Z,19
2023-02-01T05:41:56.238Z,19
2023-02-01T05:42:58.503Z,19
2023-02-01T05:44:00.731Z,19
2023-02-01T05:45:02.792Z,19
2023-02-01T05:46:05.441Z,19
2023-02-01T05:47:07.597Z,19
2023-02-01T05:48:10.122Z,19
2023-02-01T05:49:12.081Z,19
2023-02-01T05:50:14.372Z,19
2023-02-01T05:51:16.967Z,19
2023-02-01T05:52:19.632Z,19
2023-02-01T05:53:22.304Z,19
2023-02-01T05:54:24.894Z,19
2023-02-01T05:55:27.418Z,19
2023-02-01T05:56:29.969Z,19
2023-02-01T05:57:32.240Z,19
2023-02-01T05:58:34.913Z,19
2023-02-01T05:59:37.183Z,18.9
2023-02-01T06:00:39.677Z,18.9
2023-02-01T06:01:42.181Z,18.9
2023-02-01T06:02:44.607Z,18.9
2023-02-01T06:03:47.522Z,18.9
2023-02-01T06:04:49.869Z,18.9
2023-02-01T06:05:52.421Z,18.9
2023-02-01T06:06:54.697Z,18.9
2023-02-01T06:07:56.935Z,18.9
2023-02-01T06:08:59.477Z,18.9
2023-02-01T06:10:01.729Z,18.9
2023-02-01T06:11:04.248Z,18.9
2023-02-01T06:12:06.542Z,18.9
2023-02-01T06:13:09.105Z,18.9
2023-02-01T06:14:11.052Z,18.9
2023-02-01T06:15:13.614Z,18.9
2023-02-01T06:16:16.107Z,18.9
2023-02-01T06:17:18.778Z,18.8
2023-02-01T06:18:21.315Z,18.9
2023-02-01T06:19:23.534Z,18.8
2023-02-01T06:20:26.264Z,18.8
2023-02-01T06:21:28.919Z,18.8
2023-02-01T06:22:31.525Z,18.8
2023-02-01T06:23:34.073Z,18.8
2023-02-01T06:24:36.662Z,18.8
2023-02-01T06:25:39.204Z,18.8
2023-02-01T06:26:41.986Z,18.8
2023-02-01T06:27:44.346Z,18.8
2023-02-01T06:28:46.685Z,18.8
2023-02-01T06:29:48.915Z,18.8
2023-02-01T06:30:51.526Z,18.8
2023-02-01T06:31:54.381Z,18.8
2023-02-01T06:32:56.780Z,18.8
2023-02-01T06:33:59.512Z,18.9
2023-02-01T06:35:01.753Z,18.9
2023-02-01T06:36:03.769Z,18.9
2023-02-01T06:37:06.119Z,18.9
2023-02-01T06:38:08.518Z,18.9
2023-02-01T06:39:10.479Z,18.9
2023-02-01T06:40:13.012Z,18.9
2023-02-01T06:41:15.264Z,18.9
2023-02-01T06:42:17.760Z,18.9
2023-02-01T06:43:20.000Z,18.9
2023-02-01T06:44:22.607Z,18.9
2023-02-01T06:45:25.117Z,18.9
2023-02-01T06:46:27.130Z,18.9
2023-02-01T06:47:29.739Z,18.9
2023-02-01T06:48:31.777Z,18.9
2023-02-01T06:49:34.197Z,18.9
2023-02-01T06:50:36.724Z,18.9
2023-02-01T06:51:39.237Z,18.9
2023-02-01T06:52:41.812Z,18.9
2023-02-01T06:53:44.371Z,18.9
2023-02-01T06:54:46.905Z,18.9
2023-02-01T06:55:49.215Z,18.9
2023-02-01T06:56:51.748Z,18.9
2023-02-01T06:57:54.267Z,18.9
2023-02-01T06:58:56.843Z,18.9
2023-02-01T06:59:59.376Z,18.9
2023-02-01T07:01:02.039Z,18.9
2023-02-01T07:02:04.926Z,18.9
2023-02-01T07:03:07.539Z,18.9
2023-02-01T07:04:09.790Z,18.9
2023-02-01T07:05:12.323Z,18.9
2023-02-01T07:06:14.578Z,18.9
2023-02-01T07:07:16.813Z,18.9
2023-02-01T07:08:19.136Z,18.9
2023-02-01T07:09:21.439Z,18.9
2023-02-01T07:10:25.090Z,18.9
2023-02-01T07:11:26.721Z,18.9
2023-02-01T07:12:29.279Z,18.9
2023-02-01T07:13:31.496Z,18.9
2023-02-01T07:14:34.029Z,18.9
2023-02-01T07:15:36.324Z,18.9
2023-02-01T07:16:39.201Z,18.9
2023-02-01T07:17:41.373Z,18.9
2023-02-01T07:18:43.662Z,18.9
2023-02-01T07:19:46.190Z,18.9
2023-02-01T07:20:48.435Z,18.9
2023-02-01T07:21:50.960Z,18.9
2023-02-01T07:22:53.196Z,18.9
2023-02-01T07:23:55.764Z,18.9
2023-02-01T07:24:58.343Z,18.9
2023-02-01T07:26:00.848Z,18.9
2023-02-01T07:27:03.396Z,18.9
2023-02-01T07:28:05.744Z,18.9
2023-02-01T07:29:07.724Z,18.9
2023-02-01T07:30:10.014Z,18.9
2023-02-01T07:31:12.858Z,18.9
2023-02-01T07:32:15.351Z,18.8
2023-02-01T07:33:17.998Z,18.8
2023-02-01T07:34:20.576Z,18.8
2023-02-01T07:35:22.607Z,18.8
2023-02-01T07:36:25.287Z,18.8
2023-02-01T07:37:27.839Z,18.8
2023-02-01T07:38:29.812Z,18.8
2023-02-01T07:39:32.375Z,18.8
2023-02-01T07:40:34.994Z,18.8
2023-02-01T07:41:37.234Z,18.8
2023-02-01T07:42:39.758Z,18.8
2023-02-01T07:43:42.007Z,18.8
2023-02-01T07:44:44.560Z,18.8
2023-02-01T07:45:47.165Z,18.8
2023-02-01T07:46:49.469Z,18.8
2023-02-01T07:47:51.990Z,18.8
2023-02-01T07:48:54.521Z,18.8
2023-02-01T07:49:57.070Z,18.8
2023-02-01T07:50:58.760Z,18.9
2023-02-01T07:52:01.113Z,18.9
2023-02-01T07:53:03.398Z,18.9
2023-02-01T07:54:06.021Z,18.9
2023-02-01T07:55:08.299Z,18.9
2023-02-01T07:56:10.986Z,18.9
2023-02-01T07:57:12.684Z,18.9
2023-02-01T07:58:15.217Z,18.9
2023-02-01T07:59:17.455Z,18.9
2023-02-01T08:00:19.421Z,18.8
2023-02-01T08:01:22.271Z,18.8
2023-02-01T08:02:25.173Z,18.9
2023-02-01T08:03:28.010Z,18.8
2023-02-01T08:04:44.626Z,18.8
2023-02-01T08:05:46.856Z,18.8
2023-02-01T08:06:49.096Z,18.8
2023-02-01T08:07:51.671Z,18.9
2023-02-01T08:08:54.203Z,18.9
2023-02-01T08:09:56.758Z,18.9
2023-02-01T08:10:59.111Z,18.9
2023-02-01T08:12:01.691Z,18.9
2023-02-01T08:13:03.929Z,18.9
2023-02-01T08:14:05.924Z,18.9
2023-02-01T08:15:07.968Z,18.9
2023-02-01T08:16:10.608Z,18.9
2023-02-01T08:17:12.982Z,18.9
2023-02-01T08:18:15.504Z,18.9
2023-02-01T08:19:18.014Z,18.9
2023-02-01T08:20:21.132Z,18.9
2023-02-01T08:21:24.893Z,18.9
2023-02-01T08:22:27.163Z,18.9
2023-02-01T08:23:29.434Z,18.9
2023-02-01T08:24:31.409Z,18.9
2023-02-01T08:25:33.952Z,18.9
2023-02-01T08:26:36.148Z,18.9
2023-02-01T08:27:38.971Z,18.9
2023-02-01T08:28:41.541Z,18.9
2023-02-01T08:29:43.753Z,18.9
2023-02-01T08:30:46.164Z,18.9
2023-02-01T08:31:48.679Z,18.9
2023-02-01T08:32:51.263Z,18.8
2023-02-01T08:33:53.521Z,18.9
2023-02-01T08:34:55.801Z,18.8
2023-02-01T08:35:58.324Z,18.8
2023-02-01T08:37:00.613Z,18.8
2023-02-01T08:38:03.185Z,18.9
2023-02-01T08:39:05.759Z,18.8
2023-02-01T08:40:08.036Z,18.9
2023-02-01T08:41:10.580Z,18.9
2023-02-01T08:42:13.300Z,18.8
2023-02-01T08:43:15.864Z,18.8
2023-02-01T08:44:17.557Z,18.8
2023-02-01T08:45:19.534Z,18.8
2023-02-01T08:46:22.314Z,18.8
2023-02-01T08:47:25.010Z,18.8
2023-02-01T08:48:27.002Z,18.8
2023-02-01T08:49:29.287Z,18.8
2023-02-01T08:50:31.940Z,18.8
2023-02-01T08:51:34.558Z,18.9
2023-02-01T08:52:39.178Z,18.8
2023-02-01T08:53:41.487Z,18.8
2023-02-01T08:54:44.096Z,18.8
2023-02-01T08:55:46.633Z,18.8
2023-02-01T08:56:48.802Z,18.8
2023-02-01T08:57:51.594Z,18.8
2023-02-01T08:58:53.609Z,18.8
2023-02-01T08:59:55.851Z,18.8
2023-02-01T09:00:58.574Z,18.8
2023-02-01T09:02:00.653Z,18.8
2023-02-01T09:03:03.174Z,18.8
2023-02-01T09:04:05.657Z,18.8
2023-02-01T09:05:08.135Z,18.8
2023-02-01T09:06:10.759Z,18.8
2023-02-01T09:07:13.038Z,18.8
2023-02-01T09:08:15.277Z,18.8
2023-02-01T09:09:17.585Z,18.8
2023-02-01T09:11:24.832Z,18.8
2023-02-01T09:12:27.407Z,18.8
2023-02-01T09:13:29.706Z,18.8
2023-02-01T09:14:32.311Z,18.8
2023-02-01T09:15:34.784Z,18.8
2023-02-01T09:16:36.630Z,18.8
2023-02-01T09:17:38.903Z,18.8
2023-02-01T09:19:46.132Z,18.8
2023-02-01T09:20:48.712Z,18.8
2023-02-01T09:21:50.989Z,18.8
2023-02-01T09:22:53.634Z,18.8
2023-02-01T09:23:56.077Z,18.8
2023-02-01T09:24:58.703Z,18.8
2023-02-01T09:26:01.110Z,18.8
2023-02-01T09:27:04.002Z,18.9
2023-02-01T09:28:06.823Z,18.9
2023-02-01T09:29:08.569Z,18.9
2023-02-01T09:30:10.880Z,18.9
2023-02-01T09:31:13.502Z,18.9
2023-02-01T09:32:16.871Z,18.9
2023-02-01T09:33:19.474Z,18.9
2023-02-01T09:34:21.419Z,18.9
2023-02-01T09:35:23.945Z,18.9
2023-02-01T09:36:26.520Z,18.9
2023-02-01T09:37:30.659Z,18.9
2023-02-01T09:39:39.572Z,18.8
2023-02-01T09:40:42.174Z,18.8
2023-02-01T09:41:44.775Z,18.8
2023-02-01T09:42:47.287Z,18.8
2023-02-01T09:43:49.543Z,18.8
2023-02-01T09:44:52.139Z,18.8
2023-02-01T09:45:54.957Z,18.8
2023-02-01T09:46:57.293Z,18.8
2023-02-01T09:47:59.294Z,18.8
2023-02-01T09:49:01.281Z,18.8
2023-02-01T09:50:03.581Z,18.8
2023-02-01T09:51:05.867Z,18.8
2023-02-01T09:52:08.090Z,18.8
2023-02-01T09:53:10.641Z,18.8
2023-02-01T09:54:13.191Z,18.8
2023-02-01T09:55:15.442Z,18.8
2023-02-01T09:56:17.701Z,18.8
2023-02-01T09:57:20.234Z,18.8
2023-02-01T09:58:22.474Z,18.8
2023-02-01T09:59:24.705Z,18.8
2023-02-01T10:00:28.281Z,18.8
2023-02-01T10:01:30.870Z,18.8
2023-02-01T10:02:33.515Z,18.8
2023-02-01T10:03:36.218Z,18.8
2023-02-01T10:04:38.712Z,18.8
2023-02-01T10:05:41.241Z,18.8
2023-02-01T10:06:43.220Z,18.8
2023-02-01T10:07:45.466Z,18.8
2023-02-01T10:08:47.434Z,18.8
2023-02-01T10:09:49.790Z,18.8
2023-02-01T10:10:52.345Z,18.8
2023-02-01T10:11:54.908Z,18.8
2023-02-01T10:12:57.507Z,18.8
2023-02-01T10:14:00.040Z,18.8
2023-02-01T10:15:02.310Z,18.8
2023-02-01T10:16:05.353Z,18.8
2023-02-01T10:17:08.054Z,18.8
2023-02-01T10:18:10.288Z,18.8
2023-02-01T10:19:12.288Z,18.8
2023-02-01T10:20:14.831Z,18.8
2023-02-01T10:21:17.340Z,18.8
2023-02-01T10:22:19.328Z,18.8
2023-02-01T10:24:26.558Z,18.9
2023-02-01T10:25:29.905Z,18.8
2023-02-01T10:26:32.679Z,18.8
2023-02-01T10:27:35.296Z,18.8
2023-02-01T10:28:37.541Z,18.8
2023-02-01T10:29:39.826Z,18.8
2023-02-01T10:30:42.215Z,18.8
2023-02-01T10:31:45.011Z,18.8
2023-02-01T10:32:47.979Z,18.8
2023-02-01T10:33:50.238Z,18.8
2023-02-01T10:34:52.202Z,18.8
2023-02-01T10:35:54.592Z,18.8
2023-02-01T10:36:57.301Z,18.8
2023-02-01T10:37:59.876Z,18.8
2023-02-01T10:39:02.200Z,18.8
2023-02-01T10:40:04.739Z,18.8
2023-02-01T10:41:06.969Z,18.8
2023-02-01T10:42:11.640Z,18.8
2023-02-01T10:43:14.364Z,18.8
2023-02-01T10:44:17.067Z,18.8
2023-02-01T10:45:19.321Z,18.8
2023-02-01T10:46:21.967Z,18.8
2023-02-01T10:47:24.712Z,18.8
2023-02-01T10:48:27.032Z,18.8
2023-02-01T10:49:32.715Z,18.8
2023-02-01T10:50:34.940Z,18.8
2023-02-01T10:51:36.897Z,18.8
2023-02-01T10:52:38.848Z,18.8
2023-02-01T10:53:40.826Z,18.8
2023-02-01T10:54:43.124Z,18.8
2023-02-01T10:55:45.414Z,18.8
2023-02-01T10:56:47.917Z,18.8
2023-02-01T10:57:50.201Z,18.8
2023-02-01T10:58:52.442Z,18.8
2023-02-01T10:59:54.168Z,18.8
2023-02-01T11:00:56.138Z,18.8
2023-02-01T11:02:00.879Z,18.8
2023-02-01T11:03:03.669Z,18.8
2023-02-01T11:04:06.501Z,18.8
2023-02-01T11:05:09.030Z,18.8
2023-02-01T11:06:11.735Z,18.8
2023-02-01T11:07:14.460Z,18.8
2023-02-01T11:08:16.422Z,18.8
2023-02-01T11:09:18.670Z,18.8
2023-02-01T11:10:21.294Z,18.8
2023-02-01T11:11:24.645Z,18.8
2023-02-01T11:12:27.200Z,18.8
2023-02-01T11:13:29.472Z,18.8
2023-02-01T11:14:31.762Z,18.8
2023-02-01T11:15:34.035Z,18.8
2023-02-01T11:16:36.813Z,18.8
2023-02-01T11:17:39.131Z,18.8
2023-02-01T11:18:41.431Z,18.8
2023-02-01T11:19:43.988Z,18.8
2023-02-01T11:20:46.496Z,18.8
2023-02-01T11:21:49.020Z,18.8
2023-02-01T11:22:51.530Z,18.8
2023-02-01T11:23:54.055Z,18.8
2023-02-01T11:24:56.828Z,18.9
2023-02-01T11:25:59.157Z,18.8
2023-02-01T11:27:01.122Z,18.8
2023-02-01T11:28:03.376Z,18.9
2023-02-01T11:29:05.604Z,18.8
2023-02-01T11:30:08.125Z,18.9
2023-02-01T11:31:10.901Z,18.8
2023-02-01T11:32:13.751Z,18.8
2023-02-01T11:33:15.977Z,18.8
2023-02-01T11:34:19.679Z,18.9
2023-02-01T11:35:23.460Z,18.9
2023-02-01T11:36:27.188Z,18.8
2023-02-01T11:37:29.755Z,18.9
2023-02-01T11:38:31.999Z,18.9
2023-02-01T11:39:34.253Z,18.9
2023-02-01T11:40:36.783Z,18.9
2023-02-01T11:41:39.320Z,18.9
2023-02-01T11:42:41.541Z,18.9
2023-02-01T11:43:44.037Z,18.9
2023-02-01T11:44:46.559Z,18.9
2023-02-01T11:45:48.795Z,18.9
2023-02-01T11:46:51.609Z,18.9
2023-02-01T11:47:54.087Z,18.9
2023-02-01T11:48:56.620Z,18.9
2023-02-01T11:49:59.235Z,18.9
2023-02-01T11:51:01.815Z,18.9
2023-02-01T11:52:08.211Z,18.9
2023-02-01T11:53:10.736Z,18.9
2023-02-01T11:54:13.387Z,18.9
2023-02-01T11:55:15.963Z,18.9
2023-02-01T11:56:18.217Z,18.9
2023-02-01T11:57:20.545Z,18.8
2023-02-01T11:58:23.086Z,18.8
2023-02-01T11:59:25.317Z,18.8
2023-02-01T12:00:27.862Z,18.8
2023-02-01T12:01:30.387Z,18.9
2023-02-01T12:02:32.903Z,18.8
2023-02-01T12:03:35.363Z,18.8
2023-02-01T12:04:37.842Z,18.9
2023-02-01T12:05:40.407Z,18.9
2023-02-01T12:06:42.697Z,18.9
2023-02-01T12:07:45.211Z,18.8
2023-02-01T12:08:47.869Z,18.9
2023-02-01T12:09:49.549Z,18.8
2023-02-01T12:10:52.056Z,18.8
2023-02-01T12:11:54.552Z,18.9
2023-02-01T12:12:56.487Z,18.9
2023-02-01T12:13:59.038Z,18.8
2023-02-01T12:15:01.335Z,18.9
2023-02-01T12:16:04.194Z,18.8
2023-02-01T12:17:06.882Z,18.8
2023-02-01T12:18:09.475Z,18.8
2023-02-01T12:19:11.989Z,18.8
2023-02-01T12:20:14.219Z,18.8
2023-02-01T12:21:16.769Z,18.8
2023-02-01T12:22:19.075Z,18.8
2023-02-01T12:23:21.051Z,18.8
2023-02-01T12:24:23.719Z,18.8
2023-02-01T12:25:25.956Z,18.8
2023-02-01T12:26:28.130Z,18.8
2023-02-01T12:27:29.620Z,18.8
2023-02-01T12:28:31.872Z,18.8
2023-02-01T12:29:34.420Z,18.8
2023-02-01T12:30:37.085Z,18.8
2023-02-01T12:31:39.263Z,18.8
2023-02-01T12:32:41.984Z,18.8
2023-02-01T12:33:44.011Z,18.8
2023-02-01T12:34:45.987Z,18.8
2023-02-01T12:35:48.565Z,18.8
2023-02-01T12:36:51.158Z,18.8
2023-02-01T12:37:53.700Z,18.8
2023-02-01T12:38:56.106Z,18.8
2023-02-01T12:39:58.644Z,18.8
2023-02-01T12:41:01.196Z,18.8
2023-02-01T12:42:03.165Z,18.8
2023-02-01T12:43:05.522Z,18.8
2023-02-01T12:44:08.086Z,18.8
2023-02-01T12:45:10.399Z,18.8
2023-02-01T12:46:12.866Z,18.8
2023-02-01T12:47:15.292Z,18.8
2023-02-01T12:48:17.556Z,18.8
2023-02-01T12:49:20.145Z,18.8
2023-02-01T12:50:23.757Z,18.8
2023-02-01T12:51:26.815Z,18.8
2023-02-01T12:52:29.092Z,18.8
2023-02-01T12:53:31.747Z,18.8
2023-02-01T12:54:34.032Z,18.8
2023-02-01T12:55:36.323Z,18.8
2023-02-01T12:56:38.684Z,18.8
2023-02-01T12:57:41.022Z,18.8
2023-02-01T12:58:43.289Z,18.8
2023-02-01T12:59:45.857Z,18.8
2023-02-01T13:00:48.295Z,18.8
2023-02-01T13:01:51.063Z,18.8
2023-02-01T13:02:53.612Z,18.8
2023-02-01T13:03:55.927Z,18.8
2023-02-01T13:04:58.642Z,18.8
2023-02-01T13:06:00.977Z,18.8
2023-02-01T13:07:02.660Z,18.8
2023-02-01T13:08:05.225Z,18.8
2023-02-01T13:09:07.847Z,18.8
2023-02-01T13:10:10.102Z,18.8
2023-02-01T13:11:12.085Z,18.8
2023-02-01T13:12:14.679Z,18.8
2023-02-01T13:13:17.321Z,18.8
2023-02-01T13:14:19.886Z,18.8
2023-02-01T13:15:22.264Z,18.8
2023-02-01T13:16:24.405Z,18.8
2023-02-01T13:17:26.767Z,18.8
2023-02-01T13:18:29.310Z,18.8
2023-02-01T13:19:31.578Z,18.8
2023-02-01T13:20:33.864Z,18.8
2023-02-01T13:21:36.124Z,18.8
2023-02-01T13:22:38.108Z,18.8
2023-02-01T13:23:40.465Z,18.8
2023-02-01T13:24:43.081Z,18.8
2023-02-01T13:25:45.645Z,18.8
2023-02-01T13:26:48.103Z,18.8
2023-02-01T13:27:50.798Z,18.8
2023-02-01T13:28:53.047Z,18.8
2023-02-01T13:29:55.305Z,18.8
2023-02-01T13:30:58.234Z,18.8
2023-02-01T13:32:01.059Z,18.8
2023-02-01T13:34:08.718Z,18.8
2023-02-01T13:35:10.966Z,18.8
2023-02-01T13:36:13.640Z,18.8
2023-02-01T13:37:17.064Z,18.8
2023-02-01T13:38:19.623Z,18.8
2023-02-01T13:39:22.213Z,18.8
2023-02-01T13:40:24.811Z,18.8
2023-02-01T13:41:27.075Z,18.8
2023-02-01T13:42:29.627Z,18.8
2023-02-01T13:43:32.236Z,18.8
2023-02-01T13:44:34.804Z,18.8
2023-02-01T13:45:37.183Z,18.8
2023-02-01T13:46:39.949Z,18.8
2023-02-01T13:47:42.496Z,18.9
2023-02-01T13:48:44.780Z,18.8
2023-02-01T13:49:47.320Z,18.8
2023-02-01T13:50:49.851Z,18.8
2023-02-01T13:51:52.159Z,18.8
2023-02-01T13:52:54.696Z,18.8
2023-02-01T13:53:57.220Z,18.8
2023-02-01T13:54:59.491Z,18.8
2023-02-01T13:56:02.107Z,18.8
2023-02-01T13:57:04.758Z,18.8
2023-02-01T13:58:07.284Z,18.8
2023-02-01T13:59:09.531Z,18.8
2023-02-01T14:00:12.270Z,18.8
2023-02-01T14:01:14.980Z,18.8
2023-02-01T14:02:17.618Z,18.8
2023-02-01T14:03:20.162Z,18.8
2023-02-01T14:04:22.924Z,18.8
2023-02-01T14:05:26.929Z,18.8